createdAt,value
2018-10-12T00:00:53.353Z,7.20
2018-10-12T00:03:25.119Z,8.03
2018-10-12T00:05:56.535Z,7.40
2018-10-12T00:08:28.069Z,8.87
2018-10-12T00:10:59.460Z,7.73
2018-10-12T00:13:31.259Z,5.53
2018-10-12T00:16:02.499Z,6.87
2018-10-12T00:18:34.247Z,6.50
2018-10-12T00:21:05.282Z,5.87
2018-10-12T00:23:36.806Z,6.93
2018-10-12T00:26:08.255Z,7.47
2018-10-12T00:28:39.787Z,6.10
2018-10-12T00:31:11.195Z,6.80
2018-10-12T00:33:42.679Z,6.87
2018-10-12T00:36:14.268Z,6.53
2018-10-12T00:38:45.833Z,5.50
2018-10-12T00:41:17.083Z,6.10
2018-10-12T00:43:48.607Z,6.10
2018-10-12T00:46:20.359Z,6.23
2018-10-12T00:48:52.142Z,6.30
2018-10-12T00:51:23.523Z,4.90
2018-10-12T00:53:55.691Z,6.07
2018-10-12T00:56:26.851Z,5.93
2018-10-12T00:58:58.653Z,5.07
2018-10-12T01:01:30.955Z,5.60
2018-10-12T01:04:04.679Z,5.70
2018-10-12T01:06:36.471Z,6.53
2018-10-12T01:09:09.569Z,5.97
2018-10-12T01:11:40.716Z,6.87
2018-10-12T01:14:12.127Z,5.93
2018-10-12T01:16:43.307Z,5.60
2018-10-12T01:19:15.466Z,6.27
2018-10-12T01:21:46.675Z,5.93
2018-10-12T01:24:18.715Z,6.67
2018-10-12T01:26:50.826Z,6.00
2018-10-12T01:29:22.367Z,6.70
2018-10-12T01:31:53.752Z,6.40
2018-10-12T01:34:25.367Z,6.57
2018-10-12T01:36:56.675Z,6.37
2018-10-12T01:39:28.191Z,7.10
2018-10-12T01:41:59.399Z,6.60
2018-10-12T01:44:30.794Z,6.80
2018-10-12T01:47:02.096Z,5.80
2018-10-12T01:49:33.478Z,6.43
2018-10-12T01:52:04.714Z,6.50
2018-10-12T01:54:36.419Z,6.20
2018-10-12T01:57:08.258Z,6.57
2018-10-12T01:59:39.863Z,6.27
2018-10-12T02:02:11.275Z,6.67
2018-10-12T02:04:42.883Z,6.10
2018-10-12T02:07:14.247Z,7.57
2018-10-12T02:09:45.656Z,6.50
2018-10-12T02:12:17.139Z,8.00
2018-10-12T02:14:48.754Z,6.07
2018-10-12T02:17:20.039Z,6.50
2018-10-12T02:19:51.887Z,6.80
2018-10-12T02:22:23.560Z,7.37
2018-10-12T02:24:55.801Z,8.80
2018-10-12T02:27:28.067Z,6.97
2018-10-12T02:29:59.703Z,6.47
2018-10-12T02:32:30.862Z,6.10
2018-10-12T02:35:02.267Z,6.53
2018-10-12T02:37:33.591Z,6.97
2018-10-12T02:40:05.271Z,7.23
2018-10-12T02:42:36.414Z,7.37
2018-10-12T02:45:07.636Z,7.83
2018-10-12T02:47:38.968Z,8.20
2018-10-12T02:50:10.883Z,7.90
2018-10-12T02:52:42.185Z,8.03
2018-10-12T02:55:14.253Z,7.07
2018-10-12T02:57:45.472Z,8.63
2018-10-12T03:00:17.179Z,6.30
2018-10-12T03:02:48.763Z,6.93
2018-10-12T03:05:20.678Z,8.13
2018-10-12T03:07:52.087Z,6.90
2018-10-12T03:10:23.919Z,7.97
2018-10-12T03:12:55.316Z,8.50
2018-10-12T03:15:27.814Z,10.97
2018-10-12T03:18:00.889Z,7.90
2018-10-12T03:20:32.550Z,9.47
2018-10-12T03:23:04.159Z,9.73
2018-10-12T03:25:35.794Z,9.93
2018-10-12T03:28:20.962Z,10.30
2018-10-12T03:30:52.682Z,10.70
2018-10-12T03:33:24.044Z,11.80
2018-10-12T03:35:56.642Z,12.90
2018-10-12T03:38:28.262Z,10.80
2018-10-12T03:41:00.335Z,12.40
2018-10-12T03:43:31.886Z,12.10
2018-10-12T03:46:03.902Z,11.07
2018-10-12T03:48:35.202Z,13.47
2018-10-12T03:51:07.291Z,13.60
2018-10-12T03:53:38.831Z,12.90
2018-10-12T03:56:10.621Z,10.80
2018-10-12T03:58:42.078Z,12.93
2018-10-12T04:01:13.717Z,13.93
2018-10-12T04:03:44.824Z,13.67
2018-10-12T04:06:16.661Z,11.83
2018-10-12T04:08:48.255Z,13.80
2018-10-12T04:11:19.681Z,14.17
2018-10-12T04:13:50.955Z,14.70
2018-10-12T04:16:22.889Z,14.37
2018-10-12T04:18:54.906Z,16.47
2018-10-12T04:21:26.865Z,15.30
2018-10-12T04:23:58.206Z,16.33
2018-10-12T04:26:30.093Z,16.23
2018-10-12T04:29:03.741Z,16.70
2018-10-12T04:31:35.545Z,16.53
2018-10-12T04:34:07.135Z,17.00
2018-10-12T04:36:39.102Z,18.77
2018-10-12T04:39:20.348Z,18.10
2018-10-12T04:41:52.860Z,16.47
2018-10-12T04:44:24.193Z,19.30
2018-10-12T04:46:56.894Z,18.80
2018-10-12T04:49:28.571Z,21.43
2018-10-12T04:52:02.192Z,17.33
2018-10-12T04:54:33.782Z,19.67
2018-10-12T04:57:09.420Z,17.07
2018-10-12T04:59:40.980Z,19.00
2018-10-12T05:02:12.917Z,19.47
2018-10-12T05:04:44.310Z,17.27
2018-10-12T05:07:16.017Z,18.50
2018-10-12T05:09:47.355Z,18.17
2018-10-12T05:12:19.512Z,19.43
2018-10-12T05:14:53.225Z,17.87
2018-10-12T05:17:25.044Z,18.87
2018-10-12T05:19:56.472Z,19.23
2018-10-12T05:22:28.323Z,19.33
2018-10-12T05:24:59.613Z,14.70
2018-10-12T05:27:31.540Z,16.23
2018-10-12T05:30:05.072Z,15.80
2018-10-12T05:32:36.818Z,15.23
2018-10-12T05:35:08.120Z,15.83
2018-10-12T05:37:39.868Z,16.13
2018-10-12T05:40:11.470Z,14.93
2018-10-12T05:42:43.095Z,13.90
2018-10-12T05:45:14.468Z,13.40
2018-10-12T05:47:46.183Z,13.83
2018-10-12T05:50:17.780Z,12.63
2018-10-12T05:52:50.029Z,13.00
2018-10-12T05:55:21.452Z,13.80
2018-10-12T05:57:53.349Z,12.50
2018-10-12T06:00:24.708Z,12.60
2018-10-12T06:02:56.430Z,12.07
2018-10-12T06:05:28.220Z,12.63
2018-10-12T06:07:59.910Z,13.23
2018-10-12T06:10:31.262Z,11.47
2018-10-12T06:13:04.248Z,12.70
2018-10-12T06:15:35.653Z,12.13
2018-10-12T06:18:08.174Z,11.07
2018-10-12T06:20:39.465Z,11.13
2018-10-12T06:23:11.672Z,11.50
2018-10-12T06:25:42.890Z,10.10
2018-10-12T06:28:14.585Z,14.13
2018-10-12T06:30:47.208Z,11.03
2018-10-12T06:33:19.075Z,11.70
2018-10-12T06:35:50.700Z,10.03
2018-10-12T06:38:22.173Z,13.63
2018-10-12T06:40:53.644Z,11.83
2018-10-12T06:43:25.624Z,12.20
2018-10-12T06:45:57.241Z,13.17
2018-10-12T06:48:29.478Z,11.60
2018-10-12T06:51:00.782Z,12.45
2018-10-12T06:53:32.621Z,12.27
2018-10-12T06:56:04.243Z,11.73
2018-10-12T06:58:36.107Z,11.55
2018-10-12T07:01:07.372Z,9.48
2018-10-12T07:03:39.059Z,10.08
2018-10-12T07:06:10.409Z,10.58
2018-10-12T07:08:42.124Z,13.27
2018-10-12T07:11:13.697Z,10.00
2018-10-12T07:13:46.366Z,10.73
2018-10-12T07:16:18.477Z,10.20
2018-10-12T07:18:50.920Z,10.93
2018-10-12T07:21:22.460Z,11.40
2018-10-12T07:23:55.593Z,10.77
2018-10-12T07:26:34.102Z,10.97
2018-10-12T07:29:05.526Z,10.03
2018-10-12T07:31:41.156Z,11.00
2018-10-12T07:34:13.969Z,11.27
2018-10-12T07:36:46.105Z,10.33
2018-10-12T07:39:22.019Z,10.13
2018-10-12T07:41:53.539Z,10.87
2018-10-12T07:44:25.739Z,11.00
2018-10-12T07:46:57.264Z,11.73
2018-10-12T07:49:31.027Z,9.60
2018-10-12T07:52:02.977Z,11.03
2018-10-12T07:54:34.472Z,12.00
2018-10-12T07:57:13.668Z,12.77
2018-10-12T07:59:46.118Z,13.80
2018-10-12T08:02:17.692Z,13.10
2018-10-12T08:04:49.620Z,11.80
2018-10-12T08:07:20.974Z,13.13
2018-10-12T08:09:53.171Z,13.32
2018-10-12T08:12:28.440Z,13.10
2018-10-12T08:15:00.345Z,12.47
2018-10-12T08:17:31.847Z,12.68
2018-10-12T08:20:04.035Z,12.65
2018-10-12T08:22:37.278Z,12.77
2018-10-12T08:25:09.076Z,13.37
2018-10-12T08:27:44.040Z,13.00
2018-10-12T08:30:16.268Z,12.20
2018-10-12T08:32:48.798Z,11.80
2018-10-12T08:35:20.488Z,13.40
2018-10-12T08:37:51.918Z,11.83
2018-10-12T08:40:23.573Z,12.53
2018-10-12T08:42:54.960Z,12.43
2018-10-12T08:45:27.986Z,12.30
2018-10-12T08:47:59.208Z,11.20
2018-10-12T08:50:33.730Z,11.93
2018-10-12T08:53:07.207Z,10.77
2018-10-12T08:55:39.066Z,13.07
2018-10-12T08:58:10.981Z,11.17
2018-10-12T09:00:43.228Z,11.03
2018-10-12T09:03:14.424Z,12.30
2018-10-12T09:05:49.187Z,11.80
2018-10-12T09:08:21.248Z,10.60
2018-10-12T09:10:53.268Z,13.60
2018-10-12T09:13:26.552Z,9.67
2018-10-12T09:15:58.505Z,11.00
2018-10-12T09:18:30.567Z,9.70
2018-10-12T09:21:02.705Z,10.50
2018-10-12T09:23:36.157Z,10.60
2018-10-12T09:26:09.784Z,10.40
2018-10-12T09:28:43.391Z,10.83
2018-10-12T09:31:15.473Z,10.57
2018-10-12T09:33:47.345Z,11.30
2018-10-12T09:36:19.135Z,12.10
2018-10-12T09:38:50.729Z,11.77
2018-10-12T09:41:22.388Z,10.80
2018-10-12T09:43:53.730Z,10.73
2018-10-12T09:46:25.266Z,11.50
2018-10-12T09:48:56.531Z,11.30
2018-10-12T09:51:28.474Z,10.90
2018-10-12T09:53:59.755Z,12.67
2018-10-12T09:56:31.473Z,10.77
2018-10-12T09:59:03.648Z,11.77
2018-10-12T10:01:39.996Z,11.10
2018-10-12T10:04:16.324Z,10.47
2018-10-12T10:06:48.413Z,11.67
2018-10-12T10:09:19.825Z,10.43
2018-10-12T10:11:51.657Z,11.37
2018-10-12T10:14:30.829Z,11.37
2018-10-12T10:17:02.564Z,11.07
2018-10-12T10:19:34.620Z,12.10
2018-10-12T10:22:07.281Z,11.10
2018-10-12T10:24:40.070Z,13.33
2018-10-12T10:27:12.138Z,10.97
2018-10-12T10:29:43.610Z,11.70
2018-10-12T10:32:16.161Z,11.10
2018-10-12T10:34:48.280Z,11.47
2018-10-12T10:37:19.949Z,11.00
2018-10-12T10:39:51.378Z,10.73
2018-10-12T10:42:23.328Z,11.23
2018-10-12T10:44:58.657Z,10.43
2018-10-12T10:47:33.428Z,11.47
2018-10-12T10:50:04.794Z,11.97
2018-10-12T10:52:36.530Z,11.50
2018-10-12T10:55:08.124Z,12.83
2018-10-12T10:57:41.942Z,11.80
2018-10-12T11:00:14.329Z,12.53
2018-10-12T11:02:46.772Z,10.70
2018-10-12T11:05:18.194Z,11.00
2018-10-12T11:07:50.259Z,11.10
2018-10-12T11:10:22.463Z,10.23
2018-10-12T11:12:54.217Z,10.30
2018-10-12T11:15:25.536Z,9.90
2018-10-12T11:17:57.707Z,9.60
2018-10-12T11:20:29.362Z,10.13
2018-10-12T11:23:01.025Z,11.67
2018-10-12T11:25:32.462Z,10.07
2018-10-12T11:28:04.748Z,10.80
2018-10-12T11:30:36.311Z,10.73
2018-10-12T11:33:08.333Z,9.43
2018-10-12T11:35:40.936Z,9.30
2018-10-12T11:38:13.107Z,10.00
2018-10-12T11:40:44.523Z,9.10
2018-10-12T11:43:29.904Z,10.20
2018-10-12T11:46:01.728Z,9.37
2018-10-12T11:48:33.432Z,11.40
2018-10-12T11:51:05.090Z,10.93
2018-10-12T11:53:36.631Z,10.23
2018-10-12T11:56:08.177Z,11.90
2018-10-12T11:58:39.921Z,11.30
2018-10-12T12:01:11.400Z,10.60
2018-10-12T12:03:43.045Z,12.20
2018-10-12T12:06:14.320Z,11.40
2018-10-12T12:08:46.442Z,10.83
2018-10-12T12:11:18.560Z,10.67
2018-10-12T12:13:50.309Z,10.67
2018-10-12T12:16:21.781Z,12.03
2018-10-12T12:18:53.569Z,11.60
2018-10-12T12:21:25.229Z,10.63
2018-10-12T12:23:56.877Z,12.70
2018-10-12T12:26:28.153Z,12.07
2018-10-12T12:28:59.914Z,12.60
2018-10-12T12:31:31.431Z,12.30
2018-10-12T12:34:03.184Z,12.10
2018-10-12T12:36:36.821Z,11.40
2018-10-12T12:39:09.624Z,10.50
2018-10-12T12:41:40.916Z,10.27
2018-10-12T12:44:14.529Z,11.03
2018-10-12T12:46:45.805Z,10.97
2018-10-12T12:49:17.722Z,9.50
2018-10-12T12:51:48.888Z,9.87
2018-10-12T12:54:20.729Z,9.60
2018-10-12T12:56:52.100Z,8.40
2018-10-12T12:59:23.786Z,9.30
2018-10-12T13:01:54.913Z,9.37
2018-10-12T13:04:27.053Z,9.77
2018-10-12T13:06:58.512Z,8.27
2018-10-12T13:09:30.319Z,8.03
2018-10-12T13:12:01.545Z,8.37
2018-10-12T13:14:33.025Z,8.80
2018-10-12T13:17:05.099Z,8.90
2018-10-12T13:19:36.873Z,10.10
2018-10-12T13:22:08.226Z,9.43
2018-10-12T13:24:39.642Z,9.40
2018-10-12T13:27:11.940Z,8.33
2018-10-12T13:29:43.749Z,8.73
2018-10-12T13:32:14.833Z,8.63
2018-10-12T13:39:35.397Z,9.63
2018-10-12T13:42:07.449Z,8.50
2018-10-12T13:44:38.638Z,10.10
2018-10-12T13:47:10.523Z,8.77
2018-10-12T13:49:42.197Z,10.27
2018-10-12T13:52:13.945Z,8.93
2018-10-12T13:54:45.866Z,9.40
2018-10-12T13:57:17.597Z,9.43
2018-10-12T13:59:49.179Z,9.87
2018-10-12T14:02:20.734Z,10.00
2018-10-12T14:04:52.494Z,9.53
2018-10-12T14:07:24.317Z,8.93
2018-10-12T14:09:55.769Z,9.73
2018-10-12T14:12:27.020Z,8.43
2018-10-12T14:14:58.514Z,11.03
2018-10-12T14:17:30.172Z,8.97
2018-10-12T14:20:02.280Z,8.90
2018-10-12T14:22:34.570Z,8.90
2018-10-12T14:25:05.842Z,9.47
2018-10-12T14:27:37.722Z,9.47
2018-10-12T14:30:09.171Z,8.50
2018-10-12T14:32:40.970Z,9.20
2018-10-12T14:35:12.585Z,9.53
2018-10-12T14:37:44.201Z,9.30
2018-10-12T14:40:17.213Z,9.03
2018-10-12T14:42:48.818Z,9.10
2018-10-12T14:45:20.233Z,7.60
2018-10-12T14:47:52.114Z,7.77
2018-10-12T14:50:23.681Z,7.83
2018-10-12T14:52:55.428Z,9.63
2018-10-12T14:55:26.754Z,8.83
2018-10-12T14:57:58.229Z,8.17
2018-10-12T15:00:29.734Z,7.93
2018-10-12T15:03:01.835Z,9.63
2018-10-12T15:05:33.401Z,9.80
2018-10-12T15:08:05.469Z,8.83
2018-10-12T15:10:36.845Z,8.90
2018-10-12T15:13:08.818Z,9.33
2018-10-12T15:15:40.274Z,8.97
2018-10-12T15:18:11.974Z,8.70
2018-10-12T15:20:43.529Z,9.60
2018-10-12T15:23:15.368Z,8.90
2018-10-12T15:25:46.750Z,9.23
2018-10-12T15:28:18.373Z,8.77
2018-10-12T15:30:49.858Z,9.60
2018-10-12T15:33:21.561Z,8.30
2018-10-12T15:35:52.859Z,9.07
2018-10-12T15:38:24.571Z,9.83
2018-10-12T15:40:57.853Z,8.83
2018-10-12T15:43:30.014Z,9.50
2018-10-12T15:46:02.115Z,9.53
2018-10-12T15:48:33.677Z,9.60
2018-10-12T15:51:04.996Z,9.60
2018-10-12T15:53:36.870Z,9.13
2018-10-12T15:56:08.395Z,9.83
2018-10-12T15:58:41.154Z,9.10
2018-10-12T16:01:12.543Z,8.63
2018-10-12T16:03:44.805Z,9.50
2018-10-12T16:06:16.361Z,9.03
2018-10-12T16:08:48.145Z,9.30
2018-10-12T16:11:19.953Z,9.80
2018-10-12T16:13:51.766Z,8.73
2018-10-12T16:16:23.027Z,10.87
2018-10-12T16:18:54.706Z,10.23
2018-10-12T16:21:26.594Z,11.60
2018-10-12T16:23:58.350Z,11.50
2018-10-12T16:26:29.734Z,10.50
2018-10-12T16:29:01.541Z,9.70
2018-10-12T16:31:33.185Z,10.03
2018-10-12T16:34:05.247Z,10.20
2018-10-12T16:36:37.276Z,8.00
2018-10-12T16:39:10.339Z,9.80
2018-10-12T16:41:43.178Z,9.60
2018-10-12T16:44:14.845Z,10.07
2018-10-12T16:46:46.145Z,8.20
2018-10-12T16:49:17.706Z,9.20
2018-10-12T16:51:49.098Z,8.83
2018-10-12T16:54:20.516Z,8.00
2018-10-12T16:56:52.046Z,9.80
2018-10-12T16:59:23.974Z,7.97
2018-10-12T17:01:55.174Z,9.43
2018-10-12T17:04:27.907Z,9.70
2018-10-12T17:06:59.275Z,8.63
2018-10-12T17:09:31.085Z,10.27
2018-10-12T17:12:03.662Z,9.33
2018-10-12T17:14:35.426Z,9.73
2018-10-12T17:17:06.927Z,9.60
2018-10-12T17:19:38.693Z,8.90
2018-10-12T17:22:10.135Z,9.30
2018-10-12T17:24:41.870Z,9.40
2018-10-12T17:27:13.300Z,9.57
2018-10-12T17:29:44.993Z,10.33
2018-10-12T17:32:16.661Z,9.60
2018-10-12T17:34:48.697Z,8.73
2018-10-12T17:37:19.974Z,10.23
2018-10-12T17:39:51.574Z,8.90
2018-10-12T17:42:24.312Z,9.00
2018-10-12T17:44:56.166Z,8.90
2018-10-12T17:47:27.435Z,9.43
2018-10-12T17:49:59.114Z,10.10
2018-10-12T17:52:30.127Z,10.00
2018-10-12T17:55:03.307Z,7.83
2018-10-12T17:57:36.912Z,8.00
2018-10-12T18:00:09.882Z,8.80
2018-10-12T18:02:41.357Z,9.43
2018-10-12T18:05:12.667Z,7.90
2018-10-12T18:07:44.161Z,8.07
2018-10-12T18:10:15.534Z,8.00
2018-10-12T18:12:47.002Z,8.33
2018-10-12T18:15:18.530Z,7.83
2018-10-12T18:17:50.065Z,8.47
2018-10-12T18:20:21.746Z,8.23
2018-10-12T18:22:53.153Z,7.63
2018-10-12T18:25:24.858Z,6.90
2018-10-12T18:27:56.492Z,8.53
2018-10-12T18:30:28.030Z,8.70
2018-10-12T18:32:59.489Z,7.67
2018-10-12T18:35:31.058Z,8.30
2018-10-12T18:38:02.430Z,9.13
2018-10-12T18:40:34.369Z,8.70
2018-10-12T18:43:06.276Z,8.17
2018-10-12T18:45:37.851Z,8.40
2018-10-12T18:48:09.148Z,8.50
2018-10-12T18:50:40.779Z,8.20
2018-10-12T18:53:12.238Z,8.30
2018-10-12T18:55:43.992Z,8.10
2018-10-12T18:58:15.368Z,7.27
2018-10-12T19:00:46.969Z,7.13
2018-10-12T19:03:18.550Z,6.93
2018-10-12T19:05:50.489Z,6.43
2018-10-12T19:08:21.770Z,7.57
2018-10-12T19:10:53.439Z,7.27
2018-10-12T19:13:24.779Z,6.93
2018-10-12T19:15:56.390Z,6.30
2018-10-12T19:18:29.841Z,6.70
2018-10-12T19:21:01.500Z,6.80
2018-10-12T19:23:37.181Z,7.63
2018-10-12T19:26:10.820Z,5.53
2018-10-12T19:28:42.403Z,5.20
2018-10-12T19:31:14.158Z,5.30
2018-10-12T19:33:45.518Z,5.57
2018-10-12T19:36:17.414Z,5.87
2018-10-12T19:38:48.602Z,6.57
2018-10-12T19:41:20.313Z,5.70
2018-10-12T19:43:53.371Z,5.87
2018-10-12T19:46:25.847Z,6.87
2018-10-12T19:48:57.186Z,5.57
2018-10-12T19:51:28.929Z,5.93
2018-10-12T19:54:00.105Z,7.90
2018-10-12T19:56:31.965Z,5.30
2018-10-12T19:59:03.471Z,5.93
2018-10-12T20:01:35.243Z,6.00
2018-10-12T20:04:08.398Z,5.93
2018-10-12T20:06:39.997Z,5.90
2018-10-12T20:09:12.717Z,5.73
2018-10-12T20:11:44.346Z,6.10
2018-10-12T20:14:15.812Z,6.27
2018-10-12T20:16:47.679Z,5.77
2018-10-12T20:19:19.017Z,5.80
2018-10-12T20:21:50.576Z,6.37
2018-10-12T20:24:22.647Z,5.77
2018-10-12T20:26:54.826Z,6.40
2018-10-12T20:29:26.155Z,7.50
2018-10-12T20:31:57.945Z,7.50
2018-10-12T20:34:29.186Z,6.60
2018-10-12T20:37:01.101Z,7.40
2018-10-12T20:39:32.685Z,6.73
2018-10-12T20:42:04.246Z,7.40
2018-10-12T20:44:36.204Z,6.53
2018-10-12T20:47:08.579Z,7.17
2018-10-12T20:49:39.841Z,7.00
2018-10-12T20:52:11.798Z,6.27
2018-10-12T20:54:43.433Z,6.40
2018-10-12T20:57:15.241Z,6.97
2018-10-12T20:59:46.571Z,6.50
2018-10-12T21:02:18.422Z,6.57
2018-10-12T21:04:49.670Z,6.20
2018-10-12T21:07:21.489Z,6.60
2018-10-12T21:09:53.014Z,6.57
2018-10-12T21:12:24.496Z,6.50
2018-10-12T21:14:55.870Z,7.20
2018-10-12T21:17:27.717Z,6.27
2018-10-12T21:19:58.963Z,6.93
2018-10-12T21:22:30.805Z,6.57
2018-10-12T21:25:02.262Z,6.60
2018-10-12T21:27:33.913Z,5.60
2018-10-12T21:30:05.297Z,6.00
2018-10-12T21:32:37.113Z,6.57
2018-10-12T21:35:08.383Z,6.60
2018-10-12T21:37:40.331Z,7.37
2018-10-12T21:40:12.189Z,7.07
2018-10-12T21:42:43.866Z,6.63
2018-10-12T21:45:16.185Z,6.60
2018-10-12T21:47:47.752Z,6.20
2018-10-12T21:50:19.105Z,6.67
2018-10-12T21:52:50.931Z,6.83
2018-10-12T21:55:22.229Z,6.07
2018-10-12T21:57:53.911Z,5.97
2018-10-12T22:00:25.524Z,5.90
2018-10-12T22:02:57.178Z,6.23
2018-10-12T22:05:29.305Z,7.13
2018-10-12T22:08:02.945Z,6.07
2018-10-12T22:10:34.374Z,6.23
2018-10-12T22:13:06.349Z,6.53
2018-10-12T22:15:37.909Z,6.97
2018-10-12T22:18:09.505Z,7.37
2018-10-12T22:20:40.998Z,6.10
2018-10-12T22:23:12.759Z,6.93
2018-10-12T22:25:44.233Z,6.97
2018-10-12T22:28:16.077Z,7.43
2018-10-12T22:30:47.929Z,5.70
2018-10-12T22:33:19.429Z,7.37
2018-10-12T22:35:50.956Z,7.07
2018-10-12T22:38:22.857Z,8.10
2018-10-12T22:40:54.073Z,7.30
2018-10-12T22:43:25.879Z,7.10
2018-10-12T22:45:58.002Z,6.70
2018-10-12T22:48:29.821Z,7.40
2018-10-12T22:51:01.137Z,8.00
2018-10-12T22:53:32.634Z,8.20
2018-10-12T22:56:04.119Z,7.93
2018-10-12T22:58:36.161Z,9.03
2018-10-12T23:01:07.941Z,8.17
2018-10-12T23:03:39.642Z,7.57
2018-10-12T23:06:11.162Z,7.80
2018-10-12T23:08:42.765Z,7.80
2018-10-12T23:11:14.157Z,6.80
2018-10-12T23:13:45.938Z,7.80
2018-10-12T23:16:17.300Z,7.10
2018-10-12T23:18:49.287Z,7.30
2018-10-12T23:21:20.678Z,6.73
2018-10-12T23:23:52.270Z,7.40
2018-10-12T23:26:23.700Z,7.27
2018-10-12T23:28:55.718Z,7.50
2018-10-12T23:31:26.863Z,6.33
2018-10-12T23:34:10.336Z,6.90
2018-10-12T23:36:41.566Z,6.47
2018-10-12T23:39:13.208Z,7.83
2018-10-12T23:41:44.350Z,6.83
2018-10-12T23:44:15.961Z,6.93
2018-10-12T23:46:48.922Z,7.57
2018-10-12T23:49:20.830Z,6.77
2018-10-12T23:51:52.254Z,6.97
2018-10-12T23:54:23.645Z,7.60
2018-10-12T23:56:55.137Z,6.93
2018-10-12T23:59:27.166Z,6.60
